Time;durP1;ratioP1;P1;durP2;ratioP2;P2;SDS_P1;SDS_P2;PMS_P1;PMS_P2;Temp;Humidity;BMP_temperature;BMP_pressure;BME280_temperature;BME280_humidity;BME280_pressure;Samples;Min_cycle;Max_cycle;Signal;HPM_P1;HPM_P2
2021/12/09 00:00:31;;;;;;;97.67;45.00;;;-0.40;94.40;;;-0.93;68.00;94589.91;4970577;28;20500;-56
2021/12/09 00:03:05;;;;;;;105.07;47.60;;;-0.50;94.30;;;-0.93;67.40;94601.09;4978476;28;20451;-55
2021/12/09 00:05:33;;;;;;;98.07;44.17;;;-0.50;94.60;;;-0.96;67.50;94590.06;4984857;28;20505;-58
2021/12/09 00:08:00;;;;;;;106.47;46.43;;;-0.50;94.20;;;-0.98;67.41;94594.47;4979587;28;20534;-56
2021/12/09 00:10:28;;;;;;;102.40;44.10;;;-0.50;94.30;;;-0.98;67.27;94604.81;4972908;28;20448;-58
2021/12/09 00:12:55;;;;;;;93.60;43.37;;;-0.50;94.30;;;-1.00;67.60;94604.06;4971531;28;20452;-57
2021/12/09 00:15:22;;;;;;;106.87;43.83;;;-0.50;94.30;;;-1.02;67.21;94598.97;4971856;28;20921;-56
2021/12/09 00:17:50;;;;;;;93.20;41.70;;;-0.50;94.40;;;-1.01;67.41;94577.38;4972339;28;20581;-59
2021/12/09 00:20:19;;;;;;;107.30;46.80;;;-0.50;94.30;;;-1.03;67.55;94573.22;4972181;28;20481;-56
2021/12/09 00:22:47;;;;;;;107.53;46.53;;;-0.50;94.30;;;-1.04;67.11;94585.28;4972350;28;20491;-57
2021/12/09 00:25:15;;;;;;;110.60;47.80;;;-0.60;94.10;;;-1.08;67.20;94576.88;4976091;28;20480;-56
2021/12/09 00:27:42;;;;;;;110.00;47.43;;;-0.60;94.20;;;-1.13;67.77;94580.59;4972208;28;20503;-55
2021/12/09 00:30:11;;;;;;;113.07;49.03;;;-0.60;94.20;;;-1.16;67.73;94570.41;4973421;28;20455;-56
2021/12/09 00:32:39;;;;;;;110.70;46.93;;;-0.70;94.20;;;-1.22;67.42;94574.16;4971999;28;20482;-55
2021/12/09 00:35:07;;;;;;;108.30;46.67;;;-0.70;94.20;;;-1.26;67.18;94564.88;4970117;28;20459;-58
2021/12/09 00:37:39;;;;;;;121.40;51.40;;;-0.70;94.20;;;-1.27;67.44;94563.22;4973399;28;20457;-56
2021/12/09 00:40:08;;;;;;;125.53;54.40;;;-0.80;94.30;;;-1.29;67.85;94565.03;4973402;28;21024;-57
2021/12/09 00:42:35;;;;;;;135.23;56.83;;;-0.80;94.30;;;-1.30;67.87;94565.94;4977230;28;20462;-57
2021/12/09 00:45:03;;;;;;;136.80;56.17;;;-0.80;94.40;;;-1.28;67.74;94564.97;4978013;28;20486;-57
2021/12/09 00:47:30;;;;;;;136.17;58.13;;;-0.80;94.60;;;-1.23;68.29;94567.31;4974500;28;20483;-56
2021/12/09 00:49:58;;;;;;;129.03;49.93;;;-0.80;94.80;;;-1.18;68.07;94569.66;4976982;28;20461;-57
2021/12/09 00:52:26;;;;;;;132.13;52.70;;;-0.70;94.90;;;-1.17;68.89;94577.34;4970859;28;20480;-58
2021/12/09 00:54:56;;;;;;;143.83;55.07;;;-0.70;95.20;;;-1.12;68.56;94566.78;4970747;28;20542;-55
2021/12/09 00:57:23;;;;;;;135.10;56.50;;;-0.70;95.30;;;-1.08;68.63;94576.03;4971356;28;20483;-57
2021/12/09 00:59:51;;;;;;;144.20;55.20;;;-0.60;95.20;;;-1.03;68.78;94563.72;4978761;28;20846;-57
2021/12/09 01:02:18;;;;;;;123.70;55.10;;;-0.60;95.20;;;-0.98;68.79;94560.91;4971371;28;20534;-55
2021/12/09 01:04:45;;;;;;;130.17;54.57;;;-0.50;95.30;;;-0.93;68.33;94569.25;4973014;28;20570;-58
2021/12/09 01:07:13;;;;;;;135.13;52.60;;;-0.50;95.10;;;-0.87;68.47;94568.94;4973932;28;20475;-56
2021/12/09 01:09:40;;;;;;;133.27;53.23;;;-0.40;95.10;;;-0.81;68.28;94583.28;4974745;28;20455;-56
2021/12/09 01:12:10;;;;;;;119.80;52.23;;;-0.40;95.10;;;-0.78;68.70;94581.38;4972482;28;20483;-55
2021/12/09 01:14:38;;;;;;;116.50;50.53;;;-0.30;95.20;;;-0.74;68.52;94572.56;4974493;28;20842;-56
2021/12/09 01:17:05;;;;;;;106.43;45.87;;;-0.30;95.20;;;-0.68;68.50;94584.34;4973580;28;20915;-56
2021/12/09 01:19:33;;;;;;;88.93;41.00;;;-0.20;95.20;;;-0.66;67.50;94567.00;4973031;28;20455;-59
2021/12/09 01:22:01;;;;;;;90.87;40.83;;;-0.20;94.50;;;-0.67;67.09;94572.25;4969911;28;20653;-56
2021/12/09 01:24:28;;;;;;;87.97;40.03;;;-0.20;94.10;;;-0.69;66.59;94579.25;4969715;28;20502;-59
2021/12/09 01:26:56;;;;;;;85.37;42.30;;;-0.20;94.00;;;-0.69;67.14;94574.09;4972336;28;20471;-57
2021/12/09 01:29:33;;;;;;;87.20;41.50;;;-0.20;94.10;;;-0.70;66.44;94582.75;4973149;28;20844;-58
2021/12/09 01:32:03;;;;;;;87.60;39.97;;;-0.20;93.50;;;-0.76;66.60;94574.41;4975642;28;20467;-55
2021/12/09 01:34:31;;;;;;;80.73;40.30;;;-0.30;93.50;;;-0.79;66.37;94574.56;4971960;28;20447;-57
2021/12/09 01:36:59;;;;;;;100.93;40.30;;;-0.30;93.60;;;-0.82;66.70;94574.72;4976049;28;20478;-56
2021/12/09 01:39:28;;;;;;;97.27;39.47;;;-0.30;93.70;;;-0.84;66.72;94586.03;4975425;28;20547;-59
2021/12/09 01:41:56;;;;;;;103.30;43.70;;;-0.30;93.80;;;-0.86;66.77;94580.94;4970153;28;20481;-58
2021/12/09 01:44:25;;;;;;;119.50;46.23;;;-0.40;93.60;;;-0.90;66.48;94566.50;4970030;28;20498;-56
2021/12/09 01:46:52;;;;;;;111.07;46.17;;;-0.40;93.30;;;-0.92;67.15;94563.19;4962506;28;20483;-55
2021/12/09 01:49:19;;;;;;;118.47;45.43;;;-0.40;93.80;;;-0.91;67.11;94564.88;4969037;28;20671;-54
2021/12/09 01:51:48;;;;;;;127.00;45.20;;;-0.40;93.90;;;-0.91;66.87;94563.13;4971940;28;20560;-55
2021/12/09 01:54:16;;;;;;;123.13;47.73;;;-0.40;94.00;;;-0.91;67.08;94564.88;4974414;28;20479;-58
2021/12/09 01:56:43;;;;;;;121.63;48.10;;;-0.40;94.00;;;-0.88;66.97;94571.59;4969621;28;20471;-58
2021/12/09 01:59:10;;;;;;;125.87;48.53;;;-0.40;94.20;;;-0.85;67.29;94558.53;4975762;28;20463;-57
2021/12/09 02:01:39;;;;;;;132.73;47.13;;;-0.40;94.20;;;-0.83;67.33;94554.16;4975146;28;20549;-56
2021/12/09 02:04:08;;;;;;;128.97;47.70;;;-0.30;94.20;;;-0.81;67.31;94540.22;4972727;28;20901;-56
2021/12/09 02:06:40;;;;;;;130.03;50.17;;;-0.30;94.40;;;-0.77;67.67;94544.31;4966404;28;20476;-57
2021/12/09 02:09:07;;;;;;;114.90;45.87;;;-0.30;94.40;;;-0.74;67.27;94544.16;4968763;28;20447;-56
2021/12/09 02:11:35;;;;;;;137.37;50.23;;;-0.30;94.30;;;-0.74;67.04;94551.09;4970309;28;20475;-59
2021/12/09 02:14:02;;;;;;;111.83;50.63;;;-0.30;94.40;;;-0.73;67.83;94556.19;4972220;28;20878;-56
2021/12/09 02:16:30;;;;;;;114.70;45.23;;;-0.30;94.40;;;-0.69;67.11;94558.59;4972136;28;20851;-59
2021/12/09 02:18:59;;;;;;;129.80;50.13;;;-0.30;94.40;;;-0.68;68.14;94565.41;4972028;28;20472;-55
2021/12/09 02:21:29;;;;;;;144.40;50.77;;;-0.20;94.50;;;-0.66;68.07;94577.34;4972651;28;20484;-59
2021/12/09 02:23:58;;;;;;;127.53;49.50;;;-0.20;94.70;;;-0.65;67.47;94578.16;4976850;28;20482;-58
2021/12/09 02:26:27;;;;;;;124.10;48.70;;;-0.20;94.40;;;-0.65;67.48;94573.00;4969867;28;20471;-58
2021/12/09 02:28:55;;;;;;;119.67;48.87;;;-0.20;94.40;;;-0.65;67.69;94575.59;4974140;28;20463;-57
2021/12/09 02:31:23;;;;;;;116.10;47.23;;;-0.20;94.50;;;-0.62;67.65;94578.00;4970719;28;20471;-58
2021/12/09 02:33:50;;;;;;;107.47;47.90;;;-0.20;94.60;;;-0.59;67.92;94572.69;4969343;28;20455;-56
2021/12/09 02:36:18;;;;;;;107.67;45.73;;;-0.20;94.60;;;-0.57;67.54;94565.72;4970548;28;20475;-56
2021/12/09 02:38:47;;;;;;;144.50;49.83;;;-0.10;94.60;;;-0.53;67.57;94568.94;4971467;28;20459;-58
2021/12/09 02:41:18;;;;;;;103.47;44.93;;;-0.10;94.50;;;-0.57;67.52;94563.94;4973737;28;20499;-56
2021/12/09 02:43:45;;;;;;;104.03;45.40;;;-0.10;94.50;;;-0.57;67.45;94551.03;4972424;28;20447;-56
2021/12/09 02:46:13;;;;;;;111.03;46.00;;;-0.10;94.60;;;-0.55;67.44;94558.69;4976022;28;20467;-56
2021/12/09 02:48:40;;;;;;;116.17;46.27;;;-0.10;94.60;;;-0.52;67.91;94562.88;4974568;28;20446;-56
2021/12/09 02:51:07;;;;;;;107.60;45.00;;;-0.10;94.60;;;-0.50;67.78;94556.69;4969203;28;20919;-56
2021/12/09 02:53:35;;;;;;;109.70;44.27;;;-0.10;94.70;;;-0.47;67.77;94566.88;4971102;28;20964;-56
2021/12/09 02:56:04;;;;;;;105.97;47.67;;;0.00;94.80;;;-0.43;67.55;94549.47;4976413;28;20476;-58
2021/12/09 02:58:32;;;;;;;127.20;48.67;;;0.00;94.80;;;-0.41;67.40;94561.38;4969162;28;20463;-55
2021/12/09 03:01:08;;;;;;;108.67;44.30;;;0.00;94.60;;;-0.40;67.68;94557.06;4967881;28;20863;-58
2021/12/09 03:03:35;;;;;;;111.00;43.97;;;0.00;94.70;;;-0.38;68.02;94556.06;4972480;28;20447;-59
2021/12/09 03:06:03;;;;;;;106.43;45.60;;;0.10;94.80;;;-0.34;67.37;94566.22;4970625;28;20498;-56
2021/12/09 03:08:37;;;;;;;87.30;42.47;;;0.10;94.80;;;-0.33;67.96;94562.75;4971454;28;20483;-59
2021/12/09 03:11:07;;;;;;;104.17;43.13;;;0.10;94.80;;;-0.29;68.31;94559.91;4973538;28;20541;-55
2021/12/09 03:13:34;;;;;;;101.03;46.80;;;0.10;94.80;;;-0.25;68.11;94566.59;4975706;28;20455;-56
2021/12/09 03:16:02;;;;;;;84.57;42.00;;;0.20;94.80;;;-0.22;67.59;94565.56;4972540;28;20562;-55
2021/12/09 03:18:29;;;;;;;93.97;44.00;;;0.20;94.80;;;-0.19;67.78;94575.75;4968913;28;20470;-57
2021/12/09 03:20:56;;;;;;;85.97;40.83;;;0.20;94.80;;;-0.16;67.75;94574.75;4971971;28;20510;-56
2021/12/09 03:23:26;;;;;;;101.63;42.47;;;0.30;94.90;;;-0.14;68.13;94573.75;4965760;28;20565;-58
2021/12/09 03:25:53;;;;;;;93.00;41.10;;;0.30;94.90;;;-0.11;67.90;94568.44;4969757;28;20499;-55
2021/12/09 03:28:22;;;;;;;79.40;38.80;;;0.30;95.00;;;-0.06;68.07;94581.09;4972780;28;20452;-56
2021/12/09 03:30:49;;;;;;;80.53;39.40;;;0.30;95.00;;;-0.03;68.36;94576.59;4978057;28;20473;-57
2021/12/09 03:33:16;;;;;;;78.73;38.60;;;0.40;95.10;;;0.01;68.43;94573.84;4974555;28;20504;-57
2021/12/09 03:35:43;;;;;;;87.73;41.17;;;0.40;95.10;;;0.03;68.27;94570.22;4976414;28;20619;-56
2021/12/09 03:38:11;;;;;;;90.90;39.73;;;0.40;95.00;;;0.04;68.39;94556.41;4972709;28;20466;-57
2021/12/09 03:40:38;;;;;;;90.53;41.60;;;0.50;95.00;;;0.06;68.19;94557.13;4972478;28;20594;-57
2021/12/09 03:43:05;;;;;;;79.73;37.67;;;0.50;95.00;;;0.09;68.46;94553.56;4974128;28;20459;-58
2021/12/09 03:45:34;;;;;;;78.43;38.87;;;0.50;95.10;;;0.09;67.84;94553.56;4973552;28;20553;-58
2021/12/09 03:48:02;;;;;;;94.40;41.50;;;0.50;95.00;;;0.12;68.41;94550.81;4973592;28;20478;-58
2021/12/09 03:50:30;;;;;;;90.87;42.57;;;0.50;95.00;;;0.12;68.13;94543.06;4974359;28;20531;-57
2021/12/09 03:52:57;;;;;;;106.57;41.50;;;0.50;95.00;;;0.13;67.86;94560.25;4972906;28;20466;-58
2021/12/09 03:55:24;;;;;;;95.87;41.60;;;0.50;95.00;;;0.16;68.25;94567.84;4976324;28;20929;-58
2021/12/09 03:57:52;;;;;;;82.00;41.50;;;0.60;95.10;;;0.17;67.79;94567.75;4979596;28;20477;-58
2021/12/09 04:00:19;;;;;;;93.37;44.20;;;0.60;95.00;;;0.18;68.29;94573.75;4976413;28;20463;-57
2021/12/09 04:02:48;;;;;;;98.07;43.13;;;0.60;95.00;;;0.19;67.95;94585.75;4974875;28;20451;-56
2021/12/09 04:05:15;;;;;;;99.03;44.47;;;0.60;95.00;;;0.20;67.86;94579.66;4971827;28;20494;-56
2021/12/09 04:07:42;;;;;;;90.20;43.07;;;0.60;95.00;;;0.21;68.45;94578.75;4971016;28;20549;-57
2021/12/09 04:10:10;;;;;;;95.53;44.47;;;0.60;94.90;;;0.22;67.61;94575.25;4972392;28;20836;-58
2021/12/09 04:12:38;;;;;;;95.37;43.00;;;0.60;94.90;;;0.25;68.26;94575.09;4971560;28;20498;-57
2021/12/09 04:15:06;;;;;;;95.07;43.63;;;0.60;94.90;;;0.26;68.12;94574.16;4971969;28;20923;-58
2021/12/09 04:17:35;;;;;;;100.50;44.73;;;0.70;94.90;;;0.27;67.34;94575.81;4973878;28;20467;-59
2021/12/09 04:20:03;;;;;;;99.20;41.73;;;0.70;94.90;;;0.28;67.36;94577.50;4972695;28;20991;-55
2021/12/09 04:22:31;;;;;;;93.27;41.67;;;0.70;94.80;;;0.28;68.21;94577.50;4977245;28;20873;-57
2021/12/09 04:24:58;;;;;;;98.07;41.10;;;0.70;94.90;;;0.29;67.81;94571.38;4977059;28;20482;-58
2021/12/09 04:27:25;;;;;;;85.03;38.90;;;0.70;94.90;;;0.29;67.68;94576.56;4976073;28;20483;-58
2021/12/09 04:29:53;;;;;;;92.80;39.33;;;0.70;94.90;;;0.31;68.50;94592.84;4983461;28;20467;-58
2021/12/09 04:32:20;;;;;;;83.10;36.03;;;0.70;95.00;;;0.32;68.30;94584.16;4969990;28;20527;-58
2021/12/09 04:34:48;;;;;;;77.03;36.40;;;0.70;95.10;;;0.34;67.63;94578.88;4970495;28;20476;-56
2021/12/09 04:37:16;;;;;;;85.13;39.67;;;0.80;95.10;;;0.34;68.63;94574.56;4973234;28;20474;-57
2021/12/09 04:39:43;;;;;;;76.83;38.00;;;0.80;95.10;;;0.35;67.17;94577.97;4971560;28;20452;-59
2021/12/09 04:42:12;;;;;;;88.27;40.83;;;0.80;95.00;;;0.38;68.46;94587.34;4973849;28;20515;-58
2021/12/09 04:44:39;;;;;;;95.17;41.87;;;0.80;95.10;;;0.39;68.19;94578.63;4974809;28;20501;-57
2021/12/09 04:47:06;;;;;;;99.17;43.87;;;0.80;95.10;;;0.43;68.75;94595.66;4977212;28;20490;-56
2021/12/09 04:49:33;;;;;;;98.90;42.33;;;0.80;95.20;;;0.47;67.96;94604.94;4976375;28;20542;-58
2021/12/09 04:52:01;;;;;;;99.17;41.40;;;0.90;95.20;;;0.48;68.13;94597.09;4976934;28;20482;-56
2021/12/09 04:54:29;;;;;;;85.90;40.40;;;0.90;95.30;;;0.51;68.64;94590.88;4975251;28;21548;-57
2021/12/09 04:56:57;;;;;;;90.97;41.73;;;0.90;95.30;;;0.56;68.28;94603.56;4969198;28;20478;-55
2021/12/09 04:59:24;;;;;;;85.83;40.63;;;0.90;95.30;;;0.59;67.95;94593.91;4971207;28;20513;-54
2021/12/09 05:01:51;;;;;;;88.10;39.70;;;1.00;95.30;;;0.61;67.69;94597.22;4970724;28;20498;-56
2021/12/09 05:04:18;;;;;;;100.00;41.10;;;1.00;95.30;;;0.64;67.63;94596.22;4972872;28;20491;-57
2021/12/09 05:06:46;;;;;;;76.33;38.00;;;1.00;95.20;;;0.66;68.61;94602.13;4971174;28;20483;-57
2021/12/09 05:09:17;;;;;;;82.63;39.30;;;1.10;95.20;;;0.67;67.70;94596.88;4974806;28;20514;-57
2021/12/09 05:11:49;;;;;;;95.43;39.47;;;1.10;95.10;;;0.67;68.00;94586.53;4971584;28;20474;-57
2021/12/09 05:14:16;;;;;;;86.80;40.93;;;1.10;95.10;;;0.68;67.58;94590.78;4969239;28;20491;-56
2021/12/09 05:16:44;;;;;;;87.83;40.53;;;1.10;95.00;;;0.69;67.63;94589.03;4979474;28;21023;-57
2021/12/09 05:19:11;;;;;;;93.27;40.70;;;1.10;95.10;;;0.71;67.67;94603.56;4968264;28;20471;-56
2021/12/09 05:21:39;;;;;;;95.03;41.13;;;1.10;95.10;;;0.74;68.74;94612.06;4969267;28;20482;-55
2021/12/09 05:24:07;;;;;;;87.57;40.03;;;1.10;95.20;;;0.75;68.62;94596.44;4971121;28;20459;-56
2021/12/09 05:26:41;;;;;;;79.73;38.50;;;1.20;95.30;;;0.79;68.31;94599.69;4969226;28;20491;-58
2021/12/09 05:29:09;;;;;;;81.97;40.00;;;1.20;95.30;;;0.78;68.52;94604.03;4974248;28;20494;-57
2021/12/09 05:34:21;;;;;;;92.50;38.70;;;1.20;95.00;;;0.74;68.18;94602.53;4969861;28;20433;-56
2021/12/09 05:36:48;;;;;;;92.73;42.83;;;1.20;95.20;;;0.75;68.30;94598.22;4970014;28;20471;-58
2021/12/09 05:39:15;;;;;;;80.03;39.40;;;1.20;95.30;;;0.77;68.12;94604.13;4974918;28;20466;-58
2021/12/09 05:41:43;;;;;;;85.50;41.03;;;1.20;95.40;;;0.81;68.87;94608.22;4984435;28;20470;-57
2021/12/09 05:44:12;;;;;;;103.33;41.60;;;1.20;95.50;;;0.84;68.47;94602.84;4966739;28;20451;-57
2021/12/09 05:46:41;;;;;;;91.00;41.80;;;1.20;95.50;;;0.87;68.74;94600.09;4967912;28;20503;-58
2021/12/09 05:49:08;;;;;;;102.80;43.63;;;1.30;95.50;;;0.89;68.63;94590.47;4971276;28;20482;-58
2021/12/09 05:51:36;;;;;;;102.30;47.67;;;1.30;95.50;;;0.91;68.23;94614.50;4971887;28;20471;-57
2021/12/09 05:54:03;;;;;;;100.43;45.80;;;1.30;95.40;;;0.92;69.00;94615.38;4970005;28;20455;-57
2021/12/09 05:56:30;;;;;;;102.30;46.90;;;1.30;95.50;;;0.93;68.66;94623.03;4971797;28;20476;-58
2021/12/09 05:58:58;;;;;;;103.57;49.57;;;1.30;95.40;;;0.94;68.93;94616.94;4971764;28;20876;-57
2021/12/09 06:01:26;;;;;;;98.53;46.90;;;1.30;95.40;;;0.93;68.37;94612.69;4973802;28;20495;-59
2021/12/09 06:03:53;;;;;;;117.30;47.73;;;1.30;95.30;;;0.91;68.78;94616.28;4974700;28;20435;-57
2021/12/09 06:06:21;;;;;;;106.43;49.93;;;1.30;95.40;;;0.88;68.65;94604.34;4970102;28;20502;-58
2021/12/09 06:08:49;;;;;;;111.43;47.13;;;1.30;95.20;;;0.83;68.41;94617.53;4970226;28;20451;-58
2021/12/09 06:11:16;;;;;;;101.90;47.60;;;1.20;95.30;;;0.83;67.68;94632.25;4969760;28;20526;-58
2021/12/09 06:13:46;;;;;;;106.83;47.50;;;1.20;95.30;;;0.81;68.45;94613.38;4970777;28;20465;-58
2021/12/09 06:16:13;;;;;;;107.37;47.13;;;1.20;95.30;;;0.82;68.56;94621.06;4971875;28;20528;-57
2021/12/09 06:18:42;;;;;;;109.90;49.63;;;1.20;95.30;;;0.82;68.39;94618.47;4970748;28;20468;-57
2021/12/09 06:21:09;;;;;;;112.37;48.23;;;1.20;95.40;;;0.86;68.14;94622.53;4972689;28;20557;-59
2021/12/09 06:23:36;;;;;;;118.13;49.00;;;1.20;95.40;;;0.89;68.83;94629.31;4973700;28;20843;-58
2021/12/09 06:26:05;;;;;;;108.83;45.33;;;1.30;95.40;;;0.93;68.00;94638.59;4968234;28;20495;-56
2021/12/09 06:28:32;;;;;;;106.20;45.97;;;1.30;95.50;;;0.97;68.10;94634.06;4978047;28;20465;-58
2021/12/09 06:31:00;;;;;;;101.33;45.93;;;1.30;95.50;;;1.00;68.69;94624.34;4972940;28;20999;-58
2021/12/09 06:33:27;;;;;;;103.00;43.67;;;1.40;95.40;;;1.00;68.57;94623.53;4970018;28;20519;-59
2021/12/09 06:35:56;;;;;;;92.10;40.73;;;1.40;95.20;;;1.00;67.90;94634.69;4969134;28;20482;-58
2021/12/09 06:38:23;;;;;;;98.30;41.50;;;1.40;95.20;;;1.03;68.19;94633.69;4973207;28;20458;-58
2021/12/09 06:40:50;;;;;;;93.03;41.80;;;1.40;95.10;;;1.04;67.17;94625.84;4972071;28;21008;-59
2021/12/09 06:43:18;;;;;;;91.73;42.63;;;1.40;95.40;;;1.02;66.96;94625.09;4971906;28;20467;-58
2021/12/09 06:45:45;;;;;;;98.33;40.20;;;1.40;94.70;;;0.98;67.84;94626.19;4975642;28;21038;-57
2021/12/09 06:48:13;;;;;;;94.43;40.73;;;1.40;94.70;;;0.96;67.87;94622.88;4975223;28;20455;-57
2021/12/09 06:50:40;;;;;;;110.37;45.77;;;1.30;94.80;;;0.93;68.32;94622.19;4974207;28;20538;-57
2021/12/09 06:53:11;;;;;;;121.97;43.37;;;1.30;95.00;;;0.94;68.24;94624.69;4975419;28;20841;-57
2021/12/09 06:55:38;;;;;;;102.00;43.30;;;1.30;95.10;;;0.98;67.91;94622.78;4981850;28;20483;-58
2021/12/09 06:58:06;;;;;;;99.10;43.50;;;1.30;95.10;;;0.99;67.97;94616.66;4970655;28;22102;-56
2021/12/09 07:00:34;;;;;;;110.33;44.80;;;1.40;94.90;;;0.99;67.87;94612.34;4970824;28;20578;-58
2021/12/09 07:03:01;;;;;;;99.73;41.03;;;1.40;95.00;;;1.01;67.29;94615.66;4973017;28;20964;-58
2021/12/09 07:05:30;;;;;;;113.90;49.67;;;1.40;95.00;;;1.03;67.76;94611.22;4978303;28;20493;-58
2021/12/09 07:07:57;;;;;;;121.10;48.27;;;1.40;95.30;;;1.04;67.61;94615.47;4979077;28;20904;-58
2021/12/09 07:10:26;;;;;;;123.70;53.17;;;1.40;94.80;;;1.05;67.83;94616.31;4980299;28;20471;-58
2021/12/09 07:12:53;;;;;;;110.40;50.37;;;1.40;94.90;;;1.06;68.36;94618.81;4979492;28;20455;-57
2021/12/09 07:15:21;;;;;;;115.27;50.67;;;1.40;95.10;;;1.12;67.72;94611.63;4980317;28;20459;-58
2021/12/09 07:17:48;;;;;;;136.73;51.77;;;1.50;95.50;;;1.17;67.61;94609.59;4976011;28;20492;-58
2021/12/09 07:20:19;;;;;;;132.43;52.97;;;1.50;95.20;;;1.18;68.21;94606.09;4981459;28;20451;-58
2021/12/09 07:22:48;;;;;;;121.53;51.37;;;1.60;95.20;;;1.24;67.09;94613.50;4973904;28;20448;-57
2021/12/09 07:25:15;;;;;;;140.90;56.27;;;1.60;95.40;;;1.29;67.57;94608.88;4973885;28;20464;-57
2021/12/09 07:27:44;;;;;;;145.40;53.63;;;1.70;95.00;;;1.28;67.05;94611.56;4976436;28;20865;-60
2021/12/09 07:30:13;;;;;;;127.87;50.77;;;1.70;94.90;;;1.25;67.04;94612.56;4977953;28;20935;-57
2021/12/09 07:32:41;;;;;;;114.17;47.73;;;1.60;94.80;;;1.25;68.05;94609.97;4974877;28;20450;-59
2021/12/09 07:35:09;;;;;;;114.53;46.20;;;1.60;95.50;;;1.29;68.83;94611.47;4977894;28;20487;-59
2021/12/09 07:37:37;;;;;;;124.47;48.87;;;1.60;95.70;;;1.30;67.82;94605.38;4978995;28;20455;-58
2021/12/09 07:40:06;;;;;;;126.80;52.20;;;1.70;95.40;;;1.29;68.42;94602.88;4976851;28;20455;-59
2021/12/09 07:42:33;;;;;;;114.57;46.10;;;1.70;95.20;;;1.24;67.44;94610.91;4978213;28;20479;-58
2021/12/09 07:45:02;;;;;;;120.93;49.30;;;1.60;95.20;;;1.23;68.32;94611.81;4978466;28;20455;-58
2021/12/09 07:47:29;;;;;;;114.20;50.20;;;1.60;95.20;;;1.24;68.15;94621.28;4969705;28;20578;-57
2021/12/09 07:49:57;;;;;;;123.80;50.00;;;1.60;95.50;;;1.28;68.79;94619.31;4975092;28;20510;-58
2021/12/09 07:52:24;;;;;;;126.23;49.30;;;1.60;95.60;;;1.27;68.21;94617.66;4977504;28;20479;-60
2021/12/09 07:54:51;;;;;;;129.40;51.23;;;1.60;95.30;;;1.25;68.49;94607.38;4979535;28;20468;-58
2021/12/09 07:57:18;;;;;;;131.27;51.50;;;1.60;95.50;;;1.30;68.92;94605.38;4979436;28;21000;-58
2021/12/09 07:59:46;;;;;;;134.13;50.70;;;1.60;95.70;;;1.35;69.42;94589.53;4982541;28;20967;-60
2021/12/09 08:02:15;;;;;;;117.53;48.30;;;1.70;95.80;;;1.41;69.30;94605.56;4971795;28;20558;-57
2021/12/09 08:04:42;;;;;;;122.37;49.00;;;1.80;95.80;;;1.49;68.39;94593.88;4972115;28;20467;-57
2021/12/09 08:07:10;;;;;;;128.20;50.33;;;1.80;95.80;;;1.56;68.05;94592.59;4974908;28;20503;-59
2021/12/09 08:09:37;;;;;;;108.73;47.30;;;1.90;95.80;;;1.63;68.97;94590.47;4972217;28;20834;-57
2021/12/09 08:12:05;;;;;;;115.20;44.27;;;2.00;95.80;;;1.69;68.48;94595.28;4973894;28;20847;-57
2021/12/09 08:14:33;;;;;;;125.43;54.47;;;2.00;95.70;;;1.74;68.00;94590.66;4975055;28;20462;-57
2021/12/09 08:17:11;;;;;;;141.77;52.50;;;2.10;95.70;;;1.82;67.67;94605.75;4974918;28;20499;-57
2021/12/09 08:19:40;;;;;;;118.60;49.63;;;2.10;95.60;;;1.90;67.72;94601.75;4979405;28;20452;-56
2021/12/09 08:22:08;;;;;;;110.13;46.07;;;2.20;95.50;;;1.93;67.87;94593.78;4981229;28;20482;-57
2021/12/09 08:24:35;;;;;;;116.63;49.57;;;2.30;95.50;;;1.99;68.51;94596.94;4975423;28;20451;-60
2021/12/09 08:27:03;;;;;;;123.57;51.53;;;2.30;95.30;;;2.02;68.02;94602.75;4976098;28;20545;-59
2021/12/09 08:29:30;;;;;;;132.00;56.47;;;2.40;95.30;;;2.03;67.98;94601.84;4981788;28;20462;-59
2021/12/09 08:31:57;;;;;;;142.97;57.00;;;2.40;95.20;;;2.06;67.56;94603.41;4971608;28;20475;-57
2021/12/09 08:34:25;;;;;;;151.83;59.40;;;2.40;95.10;;;2.11;66.88;94609.97;4970248;28;20895;-59
2021/12/09 08:36:53;;;;;;;148.10;60.53;;;2.50;95.20;;;2.16;67.77;94586.34;4973895;28;20478;-58
2021/12/09 08:39:21;;;;;;;142.53;59.60;;;2.50;95.10;;;2.20;66.82;94579.19;4972399;28;20963;-57
2021/12/09 08:41:48;;;;;;;136.57;58.27;;;2.50;95.00;;;2.21;67.45;94586.06;4978196;28;20922;-58
2021/12/09 08:44:15;;;;;;;140.40;60.20;;;2.60;95.00;;;2.24;67.63;94591.06;4978127;28;20486;-59
2021/12/09 08:46:43;;;;;;;147.17;58.77;;;2.60;95.00;;;2.32;67.25;94584.47;4973478;28;20502;-58
2021/12/09 08:49:10;;;;;;;134.10;55.13;;;2.60;95.00;;;2.43;66.99;94586.38;4977085;28;20956;-58
2021/12/09 08:51:38;;;;;;;127.20;53.20;;;2.70;95.10;;;2.49;66.87;94582.53;4974060;28;20575;-59
2021/12/09 08:54:07;;;;;;;123.00;52.20;;;2.80;94.60;;;2.52;66.21;94577.16;4976627;28;20575;-58
2021/12/09 08:56:35;;;;;;;127.33;53.60;;;2.80;94.60;;;2.54;66.10;94571.84;4968834;28;20459;-59
2021/12/09 08:59:03;;;;;;;114.97;47.77;;;2.90;94.50;;;2.53;66.94;94568.44;4971094;28;20455;-58
2021/12/09 09:01:31;;;;;;;106.37;45.60;;;2.90;94.50;;;2.50;66.71;94561.66;4973359;28;20498;-58
2021/12/09 09:03:58;;;;;;;107.87;47.73;;;2.90;94.50;;;2.46;66.01;94565.41;4971598;28;20455;-59
2021/12/09 09:06:25;;;;;;;143.50;49.80;;;2.90;94.50;;;2.44;66.99;94559.47;4975468;28;20503;-57
2021/12/09 09:08:57;;;;;;;117.13;49.90;;;2.80;94.40;;;2.47;67.11;94561.88;4973000;28;20814;-58
2021/12/09 09:11:26;;;;;;;115.87;49.87;;;2.80;94.40;;;2.51;67.45;94565.94;4972166;28;20479;-57
2021/12/09 09:13:53;;;;;;;128.30;52.13;;;2.80;94.60;;;2.50;66.04;94556.47;4974460;28;20450;-59
2021/12/09 09:16:20;;;;;;;110.10;48.30;;;2.90;94.50;;;2.48;66.99;94557.53;4971897;28;20479;-59
2021/12/09 09:18:49;;;;;;;126.30;52.40;;;2.80;94.40;;;2.47;66.88;94543.69;4974525;28;20821;-59
2021/12/09 09:21:17;;;;;;;105.47;48.60;;;2.80;94.40;;;2.49;67.34;94520.25;4976341;28;20526;-59
2021/12/09 09:23:44;;;;;;;104.43;44.90;;;2.80;94.60;;;2.53;66.76;94536.47;4970501;28;20463;-59
2021/12/09 09:26:11;;;;;;;91.53;45.90;;;2.80;94.60;;;2.55;66.47;94527.63;4973033;28;20576;-59
2021/12/09 09:28:40;;;;;;;99.40;44.67;;;2.90;94.60;;;2.62;67.43;94531.50;4976319;28;20478;-59
2021/12/09 09:31:08;;;;;;;104.03;44.83;;;2.90;94.80;;;2.71;66.95;94537.00;4974696;28;20479;-59
2021/12/09 09:33:36;;;;;;;103.80;45.60;;;3.00;94.80;;;2.79;66.38;94522.59;4977611;28;20851;-59
2021/12/09 09:36:03;;;;;;;107.07;45.80;;;3.00;94.60;;;2.86;66.41;94521.25;4975966;28;20482;-58
2021/12/09 09:38:30;;;;;;;94.87;43.13;;;3.10;94.60;;;2.96;66.82;94520.63;4973750;28;20467;-59
2021/12/09 09:41:05;;;;;;;107.93;47.67;;;3.20;94.60;;;3.08;66.78;94525.00;4971627;28;20490;-60
2021/12/09 09:43:44;;;;;;;112.10;48.77;;;3.30;94.60;;;3.29;66.41;94522.75;4969069;28;20446;-58
2021/12/09 09:46:14;;;;;;;99.17;46.10;;;3.50;94.70;;;3.55;66.37;94513.16;4970616;28;20534;-59
2021/12/09 09:48:41;;;;;;;97.03;44.20;;;3.70;94.60;;;3.94;64.93;94508.69;4972303;28;20935;-59
2021/12/09 09:51:10;;;;;;;104.40;45.20;;;4.10;94.00;;;4.28;64.76;94506.28;4973322;28;20494;-59
2021/12/09 09:53:41;;;;;;;101.63;47.67;;;4.40;94.10;;;4.69;64.16;94487.75;4975096;28;20889;-58
2021/12/09 09:56:13;;;;;;;93.87;45.77;;;4.80;93.60;;;5.05;62.73;94484.19;4974482;28;20470;-59
2021/12/09 09:58:41;;;;;;;112.70;47.07;;;5.10;92.80;;;5.33;62.14;94498.53;4971820;28;20452;-58
2021/12/09 10:01:08;;;;;;;112.23;50.90;;;5.50;92.30;;;5.55;62.16;94481.25;4974342;28;20490;-58
2021/12/09 10:03:42;;;;;;;105.50;49.73;;;5.70;91.90;;;5.71;60.29;94471.25;4975473;28;20463;-59
2021/12/09 10:06:10;;;;;;;111.20;50.80;;;5.80;91.00;;;5.91;60.97;94479.31;4980509;28;20463;-58
2021/12/09 10:08:37;;;;;;;111.10;53.73;;;6.00;91.20;;;6.13;59.16;94468.00;4976021;28;20544;-58
2021/12/09 10:11:05;;;;;;;108.87;50.40;;;6.20;90.10;;;6.24;59.57;94478.44;4977485;28;21082;-59
2021/12/09 10:13:33;;;;;;;103.80;51.20;;;6.40;90.20;;;6.27;60.37;94459.06;4970869;28;20462;-59
2021/12/09 10:16:01;;;;;;;111.83;50.83;;;6.50;90.20;;;6.41;59.74;94457.97;4971964;28;20479;-59